Uxbridge, Canada
Current Conditions -  °F | °C
As of 11:00 PM on Saturday 25 Oct 2014 (Local Time) from CYKZ Reporting Station
Few Clouds Few Clouds  
Wind Chill: 11°   Ceiling: Unl
Heat Index: 11°   Visibility: 15mi
Dew Point:   Wind: 13mph
Humidity: 54%   Direction: 310°NW
Pressure: 29.63"   Gusts: 28mph
Location:  44.1°N, 79.12°W
Report Text: CYKZ 260300Z 31011G24KT 15SM FEW030CB FEW070 11/02 A2963 RMKCB1AC1 CB TR DIST FRQ LTGIC SE SLP035
Loading
Personal Weather Stations






























Interactive Weather Map
Tropical Storm Tracking
New forecast layout! Learn more

10-Day Weather Forecast

Advertisements
Track Severe Weather on mobile